Time;durP1;ratioP1;P1;durP2;ratioP2;P2;SDS_P1;SDS_P2;PMS_P1;PMS_P2;Temp;Humidity;BMP_temperature;BMP_pressure;BME280_temperature;BME280_humidity;BME280_pressure;Samples;Min_cycle;Max_cycle;Signal;HPM_P1;HPM_P2
2022/05/23 00:02:06;;;;;;;8.95;4.00;;;15.90;99.90;;;;;;4994235;28;20073;-82
2022/05/23 00:04:31;;;;;;;9.95;4.30;;;15.90;99.90;;;;;;4977779;28;20034;-83
2022/05/23 00:06:57;;;;;;;11.55;5.80;;;15.90;99.90;;;;;;5010420;28;20044;-83
2022/05/23 00:09:24;;;;;;;7.88;2.95;;;15.80;99.90;;;;;;5010088;28;20066;-82
2022/05/23 00:11:49;;;;;;;7.38;2.60;;;15.90;99.90;;;;;;4977629;28;20038;-82
2022/05/23 00:14:15;;;;;;;9.80;3.33;;;15.80;99.90;;;;;;5010297;28;20555;-82
2022/05/23 00:16:44;;;;;;;7.63;2.45;;;15.80;99.90;;;;;;4977723;28;20117;-82
2022/05/23 00:19:11;;;;;;;7.72;2.28;;;15.80;99.90;;;;;;4977259;28;20034;-82
2022/05/23 00:21:42;;;;;;;7.03;2.78;;;15.70;99.90;;;;;;4994065;28;20038;-82
2022/05/23 00:24:09;;;;;;;8.00;2.67;;;15.70;99.90;;;;;;4993983;28;20049;-82
2022/05/23 00:26:35;;;;;;;8.68;2.70;;;15.70;99.90;;;;;;5010019;28;20129;-82
2022/05/23 00:29:01;;;;;;;11.68;3.75;;;15.70;99.90;;;;;;5009967;28;20439;-82
2022/05/23 00:31:27;;;;;;;7.85;2.45;;;15.60;99.90;;;;;;4993709;28;20513;-82
2022/05/23 00:36:36;;;;;;;8.75;2.40;;;15.60;99.90;;;;;;5009893;28;20057;-82
2022/05/23 00:39:03;;;;;;;6.47;2.05;;;15.60;99.90;;;;;;4977160;28;20038;-82
2022/05/23 00:44:27;;;;;;;6.13;2.00;;;15.60;99.90;;;;;;5008805;28;20082;-83
2022/05/23 00:46:57;;;;;;;5.50;1.85;;;15.50;99.90;;;;;;4977623;28;20038;-82
2022/05/23 00:49:26;;;;;;;6.88;1.85;;;15.50;99.90;;;;;;4993128;28;20085;-83
2022/05/23 00:51:52;;;;;;;6.72;1.98;;;15.50;99.90;;;;;;4960826;28;20042;-82
2022/05/23 00:54:19;;;;;;;6.13;2.00;;;15.40;99.90;;;;;;4977098;28;20042;-82
2022/05/23 00:56:47;;;;;;;7.82;1.95;;;15.40;99.90;;;;;;5009406;28;20043;-82
2022/05/23 00:59:19;;;;;;;5.82;1.70;;;15.40;99.90;;;;;;4976639;28;20500;-82
2022/05/23 01:01:45;;;;;;;6.70;1.80;;;15.40;99.90;;;;;;4993313;28;20042;-82
2022/05/23 01:04:10;;;;;;;7.88;2.13;;;15.40;99.90;;;;;;4976773;28;20042;-82
2022/05/23 01:06:36;;;;;;;8.45;2.20;;;15.40;99.90;;;;;;4960772;28;20092;-82
2022/05/23 01:09:02;;;;;;;8.10;1.95;;;15.40;99.90;;;;;;4976447;28;20420;-82
2022/05/23 01:11:28;;;;;;;7.60;2.25;;;15.40;99.90;;;;;;4992889;28;20078;-82
2022/05/23 01:13:54;;;;;;;7.32;2.17;;;15.30;99.90;;;;;;5009210;28;20070;-82
2022/05/23 01:16:21;;;;;;;8.15;2.05;;;15.30;99.90;;;;;;4976535;28;20047;-82
2022/05/23 01:18:47;;;;;;;7.60;2.05;;;15.30;99.90;;;;;;4992654;28;20127;-82
2022/05/23 01:21:31;;;;;;;5.72;1.70;;;15.30;99.90;;;;;;4976563;28;20038;-82
2022/05/23 01:24:20;;;;;;;7.28;1.95;;;15.30;99.90;;;;;;4976507;28;20050;-82
2022/05/23 01:26:48;;;;;;;7.43;1.92;;;15.30;99.90;;;;;;4976573;28;20108;-82
2022/05/23 01:29:15;;;;;;;6.55;1.90;;;15.20;99.90;;;;;;4976083;28;20136;-82
2022/05/23 01:31:42;;;;;;;6.55;2.05;;;15.30;99.90;;;;;;4976336;28;20050;-83
2022/05/23 01:34:08;;;;;;;8.18;2.30;;;15.30;99.90;;;;;;4976210;28;20041;-82
2022/05/23 01:36:33;;;;;;;8.77;2.25;;;15.20;99.90;;;;;;4976495;28;20038;-83
2022/05/23 01:38:59;;;;;;;7.05;1.98;;;15.20;99.90;;;;;;5008365;28;20042;-82
2022/05/23 01:41:26;;;;;;;5.95;1.85;;;15.20;99.90;;;;;;5008643;28;20057;-82
2022/05/23 01:43:53;;;;;;;5.85;1.77;;;15.20;99.90;;;;;;4976211;28;20049;-82
2022/05/23 01:46:19;;;;;;;7.35;2.17;;;15.30;99.90;;;;;;4976326;28;20146;-82
2022/05/23 01:48:45;;;;;;;8.18;2.03;;;15.30;99.90;;;;;;4975673;28;20042;-82
2022/05/23 01:51:10;;;;;;;6.90;1.90;;;15.30;99.90;;;;;;5008529;28;20455;-82
2022/05/23 01:53:36;;;;;;;7.20;1.90;;;15.20;99.90;;;;;;5008388;28;20713;-83
2022/05/23 01:56:03;;;;;;;6.43;2.00;;;15.20;99.90;;;;;;5008145;28;20042;-82
2022/05/23 02:01:14;;;;;;;6.68;1.90;;;15.20;99.90;;;;;;5008730;28;20117;-83
2022/05/23 02:03:42;;;;;;;5.72;1.60;;;15.20;99.90;;;;;;4991848;28;20519;-83
2022/05/23 02:06:08;;;;;;;9.25;1.95;;;15.20;99.90;;;;;;5008131;28;20531;-83
2022/05/23 02:08:34;;;;;;;6.40;1.80;;;15.20;99.90;;;;;;4975506;28;20113;-82
2022/05/23 02:10:59;;;;;;;7.55;1.85;;;15.20;99.90;;;;;;4991812;28;20096;-83
2022/05/23 02:13:26;;;;;;;6.47;2.00;;;15.10;99.90;;;;;;4992062;28;20129;-82
2022/05/23 02:15:52;;;;;;;7.18;1.95;;;15.10;99.90;;;;;;4992033;28;20046;-83
2022/05/23 02:18:17;;;;;;;8.38;2.45;;;15.10;99.90;;;;;;4991533;28;20049;-82
2022/05/23 02:20:43;;;;;;;7.38;2.08;;;15.20;99.90;;;;;;4991591;28;20049;-83
2022/05/23 02:23:08;;;;;;;7.32;2.15;;;15.10;99.90;;;;;;5008012;28;20046;-83
2022/05/23 02:25:35;;;;;;;6.85;1.95;;;15.10;99.90;;;;;;4959473;28;20050;-83
2022/05/23 02:28:00;;;;;;;8.90;1.98;;;15.10;99.90;;;;;;4975054;28;20046;-83
2022/05/23 02:30:26;;;;;;;6.85;1.85;;;15.10;99.90;;;;;;5008039;28;20641;-83
2022/05/23 02:32:52;;;;;;;7.38;2.40;;;15.10;99.90;;;;;;4991472;28;20496;-83
2022/05/23 02:35:18;;;;;;;5.47;1.98;;;15.10;99.90;;;;;;5007696;28;20043;-83
2022/05/23 02:37:45;;;;;;;6.28;1.90;;;15.00;99.90;;;;;;5007530;28;20120;-82
2022/05/23 02:40:11;;;;;;;5.90;2.00;;;15.00;99.90;;;;;;4975323;28;20042;-83
2022/05/23 02:42:37;;;;;;;7.57;2.17;;;15.00;99.90;;;;;;5007728;28;20138;-83
2022/05/23 02:45:06;;;;;;;7.18;2.20;;;15.10;99.90;;;;;;4975161;28;20073;-83
2022/05/23 02:47:32;;;;;;;7.45;2.20;;;15.00;99.90;;;;;;4958675;28;20129;-83
2022/05/23 02:49:58;;;;;;;7.30;2.30;;;15.00;99.90;;;;;;5007375;28;20042;-83
2022/05/23 02:52:24;;;;;;;5.75;2.00;;;15.00;99.90;;;;;;5007501;28;20407;-83
2022/05/23 02:54:49;;;;;;;9.68;2.50;;;15.00;99.90;;;;;;4991222;28;20042;-83
2022/05/23 02:57:15;;;;;;;8.30;2.50;;;15.00;99.90;;;;;;5007297;28;20050;-83
2022/05/23 02:59:40;;;;;;;9.05;2.50;;;15.00;99.90;;;;;;5007463;28;20037;-83
2022/05/23 03:04:50;;;;;;;11.38;2.50;;;15.00;99.90;;;;;;5007587;28;20423;-83
2022/05/23 03:07:16;;;;;;;7.55;2.20;;;15.00;99.90;;;;;;5006867;28;20130;-83
2022/05/23 03:09:44;;;;;;;7.78;2.25;;;15.00;99.90;;;;;;4974790;28;20145;-83
2022/05/23 03:12:10;;;;;;;7.85;2.70;;;15.00;99.90;;;;;;4958726;28;20128;-83
2022/05/23 03:14:36;;;;;;;8.05;2.60;;;14.90;99.90;;;;;;4991210;28;20579;-83
2022/05/23 03:17:04;;;;;;;8.35;2.67;;;15.00;99.90;;;;;;5007116;28;20046;-83
2022/05/23 03:19:29;;;;;;;7.72;2.70;;;15.00;99.90;;;;;;5006904;28;20038;-83
2022/05/23 03:27:24;;;;;;;6.35;1.83;;;14.90;99.90;;;;;;5006872;28;20558;-83
2022/05/23 03:29:51;;;;;;;7.35;2.70;;;14.90;99.90;;;;;;5007096;28;20053;-83
2022/05/23 03:32:17;;;;;;;8.93;2.80;;;14.90;99.90;;;;;;5007055;28;20038;-83
2022/05/23 03:34:42;;;;;;;7.80;2.58;;;14.90;99.90;;;;;;5007225;28;20117;-83
2022/05/23 03:37:08;;;;;;;7.93;2.20;;;14.90;99.90;;;;;;4991106;28;20514;-83
2022/05/23 03:39:37;;;;;;;7.45;2.33;;;14.90;99.90;;;;;;4991633;28;20559;-83
2022/05/23 03:42:03;;;;;;;8.52;2.60;;;14.90;99.90;;;;;;4974391;28;20045;-83
2022/05/23 03:44:29;;;;;;;7.53;2.28;;;14.90;99.90;;;;;;4974654;28;20070;-83
2022/05/23 03:46:54;;;;;;;6.97;2.40;;;14.90;99.90;;;;;;4990944;28;20046;-83
2022/05/23 03:49:20;;;;;;;10.30;3.17;;;14.90;99.90;;;;;;4958307;28;20496;-83
2022/05/23 03:51:45;;;;;;;5.68;2.03;;;14.90;99.90;;;;;;5006978;28;20526;-83
2022/05/23 03:54:11;;;;;;;8.50;2.50;;;14.90;99.90;;;;;;4974581;28;20050;-83
2022/05/23 03:56:36;;;;;;;6.97;2.08;;;14.90;99.90;;;;;;4974258;28;20081;-83
2022/05/23 03:59:02;;;;;;;7.68;2.97;;;14.90;99.90;;;;;;5006787;28;20142;-83
2022/05/23 04:01:30;;;;;;;8.48;2.80;;;14.90;99.90;;;;;;4974427;28;20046;-83
2022/05/23 04:03:56;;;;;;;7.15;2.70;;;14.90;99.90;;;;;;4990358;28;20523;-84
2022/05/23 04:06:22;;;;;;;8.00;2.85;;;15.00;99.90;;;;;;4974736;28;20465;-83
2022/05/23 04:08:47;;;;;;;10.07;3.00;;;15.00;99.90;;;;;;5006816;28;20104;-83
2022/05/23 04:11:13;;;;;;;8.98;2.95;;;15.00;99.90;;;;;;5006650;28;20499;-83
2022/05/23 04:13:38;;;;;;;9.10;3.17;;;15.00;99.90;;;;;;4990503;28;20034;-83
2022/05/23 04:16:04;;;;;;;7.43;2.42;;;15.00;99.90;;;;;;4974226;28;20030;-83
2022/05/23 04:18:32;;;;;;;8.07;2.80;;;14.90;99.90;;;;;;4958889;28;20041;-83
2022/05/23 04:20:58;;;;;;;7.75;2.85;;;14.90;99.90;;;;;;4977729;28;20730;-83
2022/05/23 04:23:24;;;;;;;8.93;3.03;;;15.00;99.90;;;;;;4994364;28;20097;-84
2022/05/23 04:25:50;;;;;;;10.20;2.50;;;15.00;99.90;;;;;;4993494;28;20499;-83
2022/05/23 04:28:17;;;;;;;8.55;3.10;;;14.90;99.90;;;;;;5009718;28;20129;-83
2022/05/23 04:30:43;;;;;;;8.70;3.00;;;14.90;99.90;;;;;;4993664;28;20077;-83
2022/05/23 04:35:55;;;;;;;7.43;2.90;;;14.90;99.90;;;;;;5010087;28;20043;-83
2022/05/23 04:38:21;;;;;;;7.85;2.83;;;14.90;99.90;;;;;;4993313;28;20039;-83
2022/05/23 04:40:46;;;;;;;10.60;2.75;;;15.00;99.90;;;;;;4977640;28;20093;-83
2022/05/23 04:43:12;;;;;;;8.85;3.08;;;14.90;99.90;;;;;;5010008;28;20400;-83
2022/05/23 04:45:38;;;;;;;6.55;2.80;;;14.90;99.90;;;;;;4977481;28;20050;-83
2022/05/23 04:50:48;;;;;;;8.52;2.88;;;14.90;99.90;;;;;;5009617;28;20050;-83
2022/05/23 04:53:14;;;;;;;8.15;3.50;;;15.00;99.90;;;;;;4993498;28;20038;-83
2022/05/23 04:55:41;;;;;;;8.48;3.60;;;15.00;99.90;;;;;;4977121;28;20038;-83
2022/05/23 04:58:08;;;;;;;8.85;3.00;;;15.10;99.90;;;;;;4993159;28;20411;-83
2022/05/23 05:00:34;;;;;;;8.57;3.30;;;15.10;99.90;;;;;;4960852;28;20042;-83
2022/05/23 05:03:00;;;;;;;10.05;3.75;;;15.10;99.90;;;;;;4977168;28;20104;-83
2022/05/23 05:05:27;;;;;;;9.82;3.55;;;15.10;99.90;;;;;;5009199;28;20551;-83
2022/05/23 05:07:54;;;;;;;7.38;3.17;;;15.20;99.90;;;;;;5009385;28;20412;-83
2022/05/23 05:10:21;;;;;;;9.18;3.17;;;15.10;99.90;;;;;;4992932;28;20089;-83
2022/05/23 05:12:48;;;;;;;8.45;3.60;;;15.10;99.90;;;;;;4993205;28;20416;-83
2022/05/23 05:15:13;;;;;;;8.95;4.07;;;15.20;99.90;;;;;;4992881;28;20042;-83
2022/05/23 05:17:39;;;;;;;9.38;3.80;;;15.20;99.90;;;;;;4976264;28;20038;-83
2022/05/23 05:20:05;;;;;;;9.20;3.65;;;15.20;99.90;;;;;;5008985;28;20042;-83
2022/05/23 05:22:31;;;;;;;10.27;3.65;;;15.20;99.90;;;;;;4992906;28;20030;-83
2022/05/23 05:24:57;;;;;;;9.07;3.60;;;15.20;99.90;;;;;;4976569;28;20096;-83
2022/05/23 05:27:22;;;;;;;7.80;3.40;;;15.20;99.90;;;;;;5009046;28;20042;-82
2022/05/23 05:29:48;;;;;;;11.32;4.40;;;15.20;99.90;;;;;;5008432;28;20531;-83
2022/05/23 05:32:25;;;;;;;9.60;4.20;;;15.30;99.90;;;;;;5008858;28;20495;-83
2022/05/23 05:34:54;;;;;;;8.20;4.18;;;15.40;99.90;;;;;;4960569;28;20586;-83
2022/05/23 05:37:27;;;;;;;9.82;4.22;;;15.50;99.90;;;;;;4992401;28;20041;-83
2022/05/23 05:39:54;;;;;;;9.85;4.13;;;15.50;99.90;;;;;;4992478;28;20049;-83
2022/05/23 05:42:30;;;;;;;9.73;3.83;;;15.50;99.90;;;;;;5008659;28;20092;-83
2022/05/23 05:45:01;;;;;;;11.80;4.68;;;15.60;99.90;;;;;;4975999;28;20435;-83
2022/05/23 05:47:31;;;;;;;9.95;4.40;;;15.70;99.90;;;;;;4992296;28;20101;-83
2022/05/23 05:50:01;;;;;;;9.05;4.45;;;15.90;99.90;;;;;;5008482;28;20045;-82
2022/05/23 05:52:31;;;;;;;10.13;5.00;;;15.90;99.90;;;;;;4992099;28;20492;-83
2022/05/23 05:54:58;;;;;;;11.25;5.22;;;16.00;99.90;;;;;;5008500;28;20090;-83
2022/05/23 05:57:24;;;;;;;10.05;5.00;;;16.00;99.90;;;;;;4975946;28;20042;-82
2022/05/23 05:59:50;;;;;;;8.45;4.38;;;16.20;99.90;;;;;;4975570;28;20030;-83
2022/05/23 06:02:19;;;;;;;9.93;5.07;;;16.20;99.90;;;;;;4974665;28;20281;-82
2022/05/23 06:04:45;;;;;;;12.20;5.40;;;16.30;99.90;;;;;;4967820;28;20050;-83
2022/05/23 06:12:54;;;;;;;9.00;5.20;;;16.50;99.90;;;;;;5004023;28;20038;-83
2022/05/23 06:15:20;;;;;;;10.88;5.25;;;16.60;99.90;;;;;;5003764;28;20034;-84
2022/05/23 06:17:45;;;;;;;11.18;5.93;;;16.70;99.90;;;;;;4990468;28;20038;-83
2022/05/23 06:20:13;;;;;;;11.80;5.40;;;16.70;99.90;;;;;;4988755;28;20093;-84
2022/05/23 06:22:39;;;;;;;11.00;5.30;;;16.80;99.90;;;;;;4991816;28;20554;-84
2022/05/23 06:25:06;;;;;;;10.00;5.15;;;16.90;99.90;;;;;;4975363;28;20042;-84
2022/05/23 06:27:31;;;;;;;10.50;5.18;;;17.00;99.90;;;;;;5007615;28;20504;-84
2022/05/23 06:29:57;;;;;;;10.88;5.15;;;17.00;99.90;;;;;;4991527;28;20046;-84
2022/05/23 06:32:22;;;;;;;10.55;5.20;;;17.10;99.90;;;;;;4975267;28;20045;-84
2022/05/23 06:34:48;;;;;;;10.10;5.03;;;17.20;99.90;;;;;;4975518;28;20036;-84
2022/05/23 06:37:14;;;;;;;11.75;5.35;;;17.30;99.90;;;;;;4975341;28;20054;-83
2022/05/23 06:39:39;;;;;;;11.38;5.30;;;17.40;99.90;;;;;;4958854;28;20030;-83
2022/05/23 06:42:05;;;;;;;8.93;4.72;;;17.50;99.90;;;;;;5006912;28;20086;-84
2022/05/23 06:44:31;;;;;;;9.73;4.75;;;17.50;99.90;;;;;;5007996;28;20068;-84
2022/05/23 06:46:58;;;;;;;10.20;4.78;;;17.60;99.90;;;;;;4975309;28;20571;-84
2022/05/23 06:49:25;;;;;;;11.35;4.90;;;17.70;99.90;;;;;;4958628;28;20385;-84
2022/05/23 06:51:51;;;;;;;13.35;5.30;;;17.80;99.90;;;;;;5007314;28;20046;-84
2022/05/23 06:54:22;;;;;;;8.52;4.68;;;17.80;99.90;;;;;;4988592;28;20533;-84
2022/05/23 06:56:48;;;;;;;10.57;4.82;;;18.00;99.90;;;;;;4974341;28;20459;-84
2022/05/23 06:59:15;;;;;;;9.70;4.70;;;18.00;99.90;;;;;;4973893;28;20504;-84
2022/05/23 07:01:41;;;;;;;10.77;4.93;;;18.10;99.90;;;;;;4958053;28;20125;-83
2022/05/23 07:04:07;;;;;;;10.00;4.63;;;18.20;99.90;;;;;;4973103;28;20134;-84
2022/05/23 07:14:44;;;;;;;9.32;4.22;;;18.60;99.90;;;;;;4972133;28;20049;-85
2022/05/23 07:17:10;;;;;;;11.18;4.70;;;18.60;99.90;;;;;;4958246;28;20400;-84
2022/05/23 07:19:36;;;;;;;12.73;5.15;;;18.70;99.90;;;;;;4973740;28;20030;-84
2022/05/23 07:22:02;;;;;;;9.48;4.68;;;18.80;99.90;;;;;;4974015;28;20504;-84
2022/05/23 07:24:29;;;;;;;11.95;4.50;;;18.90;99.90;;;;;;4974118;28;20050;-84
2022/05/23 07:26:55;;;;;;;11.38;4.93;;;19.00;99.90;;;;;;4958511;28;20042;-84
2022/05/23 07:29:24;;;;;;;10.88;5.30;;;19.10;99.90;;;;;;4974478;28;20042;-84
2022/05/23 07:31:50;;;;;;;11.13;5.10;;;19.10;99.90;;;;;;4974732;28;20527;-84
2022/05/23 07:34:17;;;;;;;9.95;4.68;;;19.20;99.90;;;;;;4958532;28;20049;-84
2022/05/23 07:36:44;;;;;;;10.43;4.85;;;19.40;99.90;;;;;;4974879;28;20073;-84
2022/05/23 07:39:11;;;;;;;10.30;4.82;;;19.50;99.90;;;;;;4974489;28;20137;-84
2022/05/23 07:41:41;;;;;;;11.80;4.85;;;19.60;99.90;;;;;;4974479;28;20050;-85
2022/05/23 07:44:08;;;;;;;9.20;4.72;;;19.70;99.90;;;;;;4974565;28;20042;-84
2022/05/23 07:46:34;;;;;;;9.73;4.65;;;19.70;99.90;;;;;;4974830;28;20145;-84
2022/05/23 07:49:00;;;;;;;10.18;4.60;;;19.70;99.90;;;;;;4958000;28;20084;-84
2022/05/23 07:51:30;;;;;;;10.68;4.95;;;19.80;99.90;;;;;;4958593;28;20034;-84
2022/05/23 08:02:16;;;;;;;11.40;5.07;;;20.10;99.90;;;;;;4978044;28;20126;-84
2022/05/23 08:04:42;;;;;;;9.20;5.05;;;20.20;99.90;;;;;;4978075;28;20077;-85
2022/05/23 08:07:09;;;;;;;12.10;5.60;;;20.30;99.90;;;;;;4977890;28;20530;-84
2022/05/23 08:09:36;;;;;;;9.68;4.70;;;20.40;99.90;;;;;;4977804;28;20046;-85
2022/05/23 08:12:04;;;;;;;10.10;4.43;;;20.40;99.10;;;;;;4977645;28;20049;-85
2022/05/23 08:14:30;;;;;;;10.75;5.00;;;20.50;99.90;;;;;;4978044;28;20125;-85
2022/05/23 08:16:56;;;;;;;10.88;4.88;;;20.60;99.90;;;;;;4977710;28;20130;-85
2022/05/23 08:19:22;;;;;;;9.73;4.53;;;20.60;99.90;;;;;;4977154;28;20491;-85
2022/05/23 08:21:52;;;;;;;9.93;4.90;;;20.70;99.90;;;;;;4961915;28;20046;-85
2022/05/23 08:24:18;;;;;;;9.95;4.13;;;20.80;99.90;;;;;;4977906;28;20116;-85
2022/05/23 08:26:44;;;;;;;9.77;4.40;;;20.90;99.80;;;;;;4977636;28;20125;-85
2022/05/23 08:29:10;;;;;;;10.30;4.65;;;21.00;99.90;;;;;;4977154;28;20125;-85
2022/05/23 08:31:36;;;;;;;8.77;4.40;;;21.10;99.90;;;;;;4977585;28;20042;-85
2022/05/23 08:34:02;;;;;;;9.30;4.57;;;21.20;98.60;;;;;;4977429;28;20042;-85
2022/05/23 08:36:28;;;;;;;8.63;4.55;;;21.30;98.00;;;;;;4961350;28;20053;-85
2022/05/23 08:38:54;;;;;;;10.80;4.35;;;21.30;97.80;;;;;;4961044;28;20042;-84
2022/05/23 08:41:28;;;;;;;7.95;4.03;;;21.40;98.60;;;;;;4977347;28;20042;-85
2022/05/23 08:44:24;;;;;;;9.50;4.13;;;21.50;98.00;;;;;;4977557;28;20038;-85
2022/05/23 08:47:11;;;;;;;9.07;4.07;;;21.50;97.10;;;;;;4977396;28;20660;-85
2022/05/23 08:50:10;;;;;;;10.18;4.60;;;21.60;98.40;;;;;;4976851;28;20053;-85
2022/05/23 08:53:01;;;;;;;10.23;4.53;;;21.70;99.50;;;;;;4977007;28;20042;-85
2022/05/23 08:55:38;;;;;;;10.98;4.63;;;21.80;99.40;;;;;;4977391;28;20053;-85
2022/05/23 08:58:17;;;;;;;8.88;3.63;;;22.00;99.90;;;;;;4976652;28;20084;-85
2022/05/23 09:00:57;;;;;;;10.85;4.43;;;22.10;99.60;;;;;;4960847;28;20042;-85
2022/05/23 09:03:23;;;;;;;8.50;3.53;;;22.20;97.60;;;;;;4960633;28;20046;-85
2022/05/23 09:05:56;;;;;;;8.50;3.75;;;22.30;96.70;;;;;;4976592;28;20169;-84
2022/05/23 09:08:25;;;;;;;9.75;3.83;;;22.40;96.80;;;;;;4976456;28;20049;-85
2022/05/23 09:10:59;;;;;;;9.18;3.95;;;22.60;96.50;;;;;;4977066;28;20136;-85
2022/05/23 09:13:30;;;;;;;10.15;3.95;;;22.60;96.50;;;;;;4976724;28;20042;-85
2022/05/23 09:16:03;;;;;;;11.05;4.20;;;22.70;95.40;;;;;;4976782;28;20046;-85
2022/05/23 09:18:40;;;;;;;8.57;3.58;;;22.80;95.80;;;;;;4976606;28;20407;-84
2022/05/23 09:21:08;;;;;;;9.23;3.55;;;23.00;93.90;;;;;;4976583;28;20042;-84
2022/05/23 09:23:40;;;;;;;8.50;3.25;;;23.00;92.60;;;;;;4976503;28;20092;-85
2022/05/23 09:26:15;;;;;;;8.93;3.60;;;23.10;90.10;;;;;;4976531;28;20126;-84
2022/05/23 09:28:41;;;;;;;9.57;3.05;;;23.10;87.20;;;;;;4976121;28;20042;-85
2022/05/23 09:31:39;;;;;;;9.60;3.65;;;23.20;90.20;;;;;;4976248;28;20093;-85
2022/05/23 09:34:04;;;;;;;9.43;3.50;;;23.30;90.60;;;;;;4949656;28;20125;-85
2022/05/23 09:36:40;;;;;;;10.85;4.03;;;23.20;90.10;;;;;;4960038;28;20117;-84
2022/05/23 09:39:09;;;;;;;8.63;3.50;;;23.30;86.00;;;;;;4983516;28;20520;-85
2022/05/23 09:49:52;;;;;;;7.47;2.50;;;23.30;84.60;;;;;;4973992;28;20129;-85
2022/05/23 09:52:36;;;;;;;5.75;2.25;;;23.40;79.20;;;;;;4975497;28;20125;-85
2022/05/23 09:55:05;;;;;;;7.43;2.40;;;23.30;77.00;;;;;;5004699;28;20550;-85
2022/05/23 09:57:40;;;;;;;8.48;2.65;;;23.40;80.10;;;;;;5008540;28;20408;-85
2022/05/23 10:00:25;;;;;;;8.73;3.00;;;23.50;82.30;;;;;;4975758;28;20053;-84
2022/05/23 10:03:01;;;;;;;9.55;2.83;;;23.60;82.80;;;;;;5008921;28;20054;-85
2022/05/23 10:05:38;;;;;;;8.77;2.80;;;23.60;78.30;;;;;;4991580;28;20038;-85
2022/05/23 10:08:29;;;;;;;9.48;2.60;;;23.70;77.70;;;;;;4975425;28;20053;-85
2022/05/23 10:10:58;;;;;;;7.53;2.90;;;23.80;80.10;;;;;;5008466;28;20042;-85
2022/05/23 10:13:38;;;;;;;10.25;2.90;;;23.90;84.90;;;;;;4975905;28;20078;-85
2022/05/23 10:16:15;;;;;;;7.05;2.38;;;24.10;84.80;;;;;;4974823;28;20085;-85
2022/05/23 10:18:52;;;;;;;8.68;2.70;;;24.20;78.10;;;;;;4975426;28;20034;-85
2022/05/23 10:21:26;;;;;;;6.30;2.33;;;24.30;73.30;;;;;;4991726;28;20084;-85
2022/05/23 10:24:03;;;;;;;7.15;2.35;;;24.30;72.80;;;;;;5007961;28;20137;-85
2022/05/23 10:26:33;;;;;;;7.40;2.60;;;24.40;70.50;;;;;;4975630;28;20080;-85
2022/05/23 10:29:17;;;;;;;8.60;2.60;;;24.30;70.70;;;;;;5007568;28;20046;-85
2022/05/23 10:31:49;;;;;;;7.35;2.45;;;24.40;69.70;;;;;;4975187;28;20053;-85
2022/05/23 10:34:37;;;;;;;6.28;2.30;;;24.40;70.90;;;;;;4975372;28;20042;-85
2022/05/23 10:37:06;;;;;;;8.43;2.40;;;24.50;68.90;;;;;;5007976;28;20077;-85
2022/05/23 10:42:35;;;;;;;7.65;2.20;;;24.70;71.20;;;;;;4973178;28;20133;-85
2022/05/23 10:45:28;;;;;;;8.98;2.20;;;24.80;68.60;;;;;;4975328;28;20042;-85
2022/05/23 10:48:33;;;;;;;10.70;2.42;;;24.90;66.90;;;;;;5007406;28;20484;-85
2022/05/23 10:51:10;;;;;;;6.75;2.03;;;25.00;65.00;;;;;;5007543;28;20046;-85
2022/05/23 10:54:14;;;;;;;6.57;2.15;;;25.10;66.20;;;;;;4974976;28;20543;-85
2022/05/23 10:57:04;;;;;;;8.00;2.40;;;25.20;66.70;;;;;;4878854;29;20072;-86
2022/05/23 10:59:42;;;;;;;7.80;2.20;;;25.30;67.30;;;;;;4878605;29;20506;-85
2022/05/23 11:02:33;;;;;;;7.63;2.10;;;25.50;65.70;;;;;;4947442;28;20046;-86
2022/05/23 11:05:21;;;;;;;8.43;2.50;;;25.60;64.50;;;;;;4975096;28;20048;-86
2022/05/23 11:08:12;;;;;;;7.28;2.22;;;25.70;65.30;;;;;;4974394;28;20054;-85
2022/05/23 11:10:44;;;;;;;7.88;2.65;;;25.80;64.30;;;;;;4951368;28;20054;-86
2022/05/23 11:13:34;;;;;;;8.57;2.80;;;25.80;62.50;;;;;;4974839;28;20042;-85
2022/05/23 11:16:15;;;;;;;9.07;2.70;;;25.90;63.50;;;;;;5007470;28;20050;-86
2022/05/23 11:18:49;;;;;;;7.78;3.00;;;25.90;62.70;;;;;;5006902;28;20042;-85
2022/05/23 11:21:29;;;;;;;7.85;3.10;;;25.90;65.20;;;;;;4958701;28;20108;-86
2022/05/23 11:23:59;;;;;;;7.10;2.88;;;26.00;61.90;;;;;;4998671;28;20045;-85
2022/05/23 11:26:33;;;;;;;8.20;2.80;;;25.90;61.90;;;;;;4958550;28;20054;-85
2022/05/23 11:34:56;;;;;;;9.05;2.65;;;25.80;63.20;;;;;;4978834;28;19917;-85
2022/05/23 11:39:53;;;;;;;14.23;2.88;;;25.90;61.70;;;;;;4978398;28;20050;-86
2022/05/23 11:42:22;;;;;;;7.80;2.92;;;26.00;63.70;;;;;;4978641;28;20070;-86
2022/05/23 11:44:50;;;;;;;9.75;3.40;;;26.10;62.00;;;;;;4978458;28;20125;-86
2022/05/23 11:47:44;;;;;;;7.68;2.88;;;26.30;64.60;;;;;;4978373;28;20128;-86
2022/05/23 11:50:26;;;;;;;10.02;2.75;;;26.30;61.70;;;;;;4962241;28;20053;-86
2022/05/23 11:53:08;;;;;;;30.17;7.10;;;26.40;64.50;;;;;;4978503;28;20053;-86
2022/05/23 11:55:54;;;;;;;7.88;2.60;;;26.50;62.20;;;;;;4978571;28;20125;-86
2022/05/23 11:58:42;;;;;;;9.73;2.45;;;26.50;63.40;;;;;;4978050;28;20046;-86
2022/05/23 12:01:10;;;;;;;8.55;2.75;;;26.40;59.10;;;;;;4978160;28;20046;-86
2022/05/23 12:03:55;;;;;;;10.30;3.15;;;26.30;57.70;;;;;;4977951;28;20467;-86
2022/05/23 12:06:23;;;;;;;9.00;2.50;;;26.40;59.50;;;;;;4978125;28;20487;-86
2022/05/23 12:08:59;;;;;;;7.00;2.53;;;26.40;59.80;;;;;;4977650;28;20042;-86
2022/05/23 12:11:25;;;;;;;7.40;2.17;;;26.50;60.10;;;;;;4977874;28;20039;-86
2022/05/23 12:13:57;;;;;;;7.38;2.35;;;26.50;60.40;;;;;;4977855;28;20038;-86
2022/05/23 12:16:32;;;;;;;6.20;2.08;;;26.50;59.60;;;;;;4977995;28;20149;-86
2022/05/23 12:19:38;;;;;;;9.18;2.50;;;26.40;58.60;;;;;;4993595;28;20058;-86
2022/05/23 12:22:19;;;;;;;6.95;2.30;;;26.20;58.70;;;;;;4974719;28;20046;-86
2022/05/23 12:24:59;;;;;;;9.10;2.22;;;26.10;59.00;;;;;;4974794;28;20129;-86
2022/05/23 12:27:32;;;;;;;5.90;2.28;;;26.00;58.20;;;;;;4958521;28;20050;-86
2022/05/23 12:30:17;;;;;;;8.48;2.60;;;26.00;58.30;;;;;;4959567;28;20042;-86
2022/05/23 12:33:03;;;;;;;7.38;2.42;;;25.90;60.00;;;;;;4977460;28;20057;-86
2022/05/23 12:35:36;;;;;;;6.38;2.70;;;25.80;60.70;;;;;;4976713;28;20066;-85
2022/05/23 12:38:20;;;;;;;11.15;3.10;;;25.70;58.10;;;;;;4976638;28;20050;-86
2022/05/23 12:41:07;;;;;;;7.50;3.30;;;25.60;59.20;;;;;;4976950;28;20038;-86
2022/05/23 12:43:55;;;;;;;8.00;2.80;;;25.50;61.30;;;;;;4977006;28;20042;-85
2022/05/23 12:46:48;;;;;;;9.45;2.67;;;25.40;60.40;;;;;;4961252;28;20038;-86
2022/05/23 12:49:39;;;;;;;7.97;3.00;;;25.40;61.60;;;;;;4977050;28;20042;-86
2022/05/23 12:52:31;;;;;;;7.38;2.88;;;25.30;62.80;;;;;;4976978;28;20042;-86
2022/05/23 12:55:28;;;;;;;6.85;2.80;;;25.20;63.50;;;;;;4961143;28;20049;-86
2022/05/23 12:58:02;;;;;;;6.93;3.50;;;25.10;62.50;;;;;;4994244;28;20046;-86
2022/05/23 13:00:33;;;;;;;10.23;3.47;;;25.10;62.30;;;;;;4977127;28;20042;-85
2022/05/23 13:03:23;;;;;;;7.28;3.42;;;25.00;62.10;;;;;;4977217;28;20030;-86
2022/05/23 13:06:16;;;;;;;8.35;3.45;;;25.00;62.50;;;;;;4994325;28;20038;-85
2022/05/23 13:08:50;;;;;;;8.25;3.60;;;24.90;64.00;;;;;;4993873;28;20048;-85
2022/05/23 13:11:30;;;;;;;8.55;3.40;;;24.90;65.30;;;;;;4976844;28;20570;-86
2022/05/23 13:13:58;;;;;;;8.95;3.50;;;24.90;67.40;;;;;;4976805;28;20030;-85
2022/05/23 13:16:32;;;;;;;11.18;3.35;;;24.90;67.20;;;;;;4976851;28;20056;-85
2022/05/23 13:22:06;;;;;;;9.00;3.60;;;24.80;66.30;;;;;;4976715;28;20049;-85
2022/05/23 13:24:48;;;;;;;9.73;3.40;;;24.80;68.30;;;;;;4976671;28;20042;-85
2022/05/23 13:27:18;;;;;;;7.65;3.08;;;24.80;68.80;;;;;;4976861;28;20407;-85
2022/05/23 13:29:48;;;;;;;8.48;3.22;;;24.80;67.20;;;;;;4959994;28;20149;-85
2022/05/23 13:32:17;;;;;;;8.75;3.58;;;24.80;68.60;;;;;;4976456;28;20492;-85
2022/05/23 13:34:45;;;;;;;8.55;3.30;;;24.80;70.60;;;;;;4976350;28;20046;-85
2022/05/23 13:37:25;;;;;;;7.68;3.70;;;24.90;71.70;;;;;;4976574;28;20121;-85
2022/05/23 13:39:50;;;;;;;10.05;4.10;;;24.90;69.10;;;;;;4976151;28;20034;-85
2022/05/23 13:42:19;;;;;;;7.32;3.38;;;24.80;70.20;;;;;;4976395;28;20046;-85
2022/05/23 13:44:44;;;;;;;8.23;3.78;;;24.80;73.90;;;;;;4972725;28;20238;-86
2022/05/23 13:47:18;;;;;;;8.10;3.30;;;24.90;72.90;;;;;;4956813;28;20141;-85
2022/05/23 13:49:57;;;;;;;9.80;3.35;;;24.90;73.40;;;;;;4956303;28;20500;-86
2022/05/23 13:52:39;;;;;;;8.70;3.22;;;24.90;70.70;;;;;;4940638;28;20051;-86
2022/05/23 13:55:16;;;;;;;9.52;3.55;;;25.00;69.90;;;;;;4956796;28;20038;-85
2022/05/23 13:57:53;;;;;;;9.15;3.38;;;25.00;69.60;;;;;;4940662;28;20049;-86
2022/05/23 14:00:23;;;;;;;9.40;3.10;;;25.00;69.00;;;;;;4956538;28;20117;-85
2022/05/23 14:03:05;;;;;;;8.38;3.25;;;25.00;70.00;;;;;;4956399;28;20089;-86
2022/05/23 14:05:34;;;;;;;9.73;3.65;;;25.10;71.30;;;;;;4956461;28;20089;-86
2022/05/23 14:08:01;;;;;;;9.38;3.47;;;25.10;70.30;;;;;;4940421;28;20077;-86
2022/05/23 14:10:28;;;;;;;7.82;3.20;;;25.20;70.00;;;;;;4973776;28;20051;-85
2022/05/23 14:12:56;;;;;;;8.77;3.38;;;25.20;72.90;;;;;;4956411;28;20038;-85